Flight Track Log - Related Links

Times and Time Zones

All times are in EDT time to prevent confusion due to time zone crossing. See the EJA372P flight status page for this flight to view local times or setup timezone preferences in your user account.

Time Position Orientation Groundspeed Altitude Reporting Facility
EDT Latitude Longitude Course Direction KTS MPH feet Rate Location/Type
Fri 07:44:13 AM 32.3642 -64.6706 109° East 428 493 700  Level New York Center
Fri 07:45:13 AM 32.3464 -64.6106 109° East 282 325 4,500 4,235 Climbing New York Center
Fri 07:46:12 AM 32.2822 -64.6175 185° South 188 216 9,100 3,800 Climbing New York Center
Fri 07:47:13 AM 32.2786 -64.7111 267° West 145 167 12,100 2,902 Climbing New York Center
Fri 07:48:14 AM 32.2856 -64.8064 275° West 263 303 15,000 2,826 Climbing New York Center
Fri 07:49:14 AM 32.2875 -64.9289 271° West 326 375 17,800 2,695 Climbing New York Center
Fri 07:50:12 AM 32.2925 -65.0314 273° West 353 406 20,300 2,400 Climbing New York Center
Fri 07:51:14 AM 32.2964 -65.1586 272° West 353 406 22,600 2,066 Climbing New York Center
Fri 07:52:14 AM 32.2997 -65.2761 272° West 369 425 24,500 1,881 Climbing New York Center
Fri 07:53:12 AM 32.3031 -65.3914 272° West 377 434 26,300 1,916 Climbing New York Center
Fri 07:54:13 AM 32.3069 -65.5283 272° West 389 448 28,300 1,686 Climbing New York Center
Fri 07:55:13 AM 32.3083 -65.6558 271° West 389 448 29,700 1,400 Climbing New York Center
Fri 07:56:13 AM 32.3114 -65.7736 272° West 394 453 31,100 1,537 Climbing New York Center
Fri 07:57:14 AM 32.3150 -65.9131 272° West 394 453 32,800 1,563 Climbing New York Center
Fri 07:58:12 AM 32.3158 -66.0383 270° West 394 453 34,200 1,373 Climbing New York Center
Fri 07:59:12 AM 32.3206 -66.1533 273° West 389 448 35,500 1,180 Climbing New York Center
Fri 08:00:14 AM 32.3236 -66.2881 272° West 382 440 36,600 1,008 Climbing New York Center
Fri 08:01:11 AM 32.3256 -66.3983 271° West 382 440 37,500 1,017 Climbing New York Center
Fri 08:02:12 AM 32.3306 -66.5356 273° West 382 440 38,600 992 Climbing New York Center
Fri 08:03:12 AM 32.3306 -66.6583 270° West 382 440 39,500 893 Climbing New York Center
Fri 08:04:13 AM 32.3383 -66.7658 275° West 376 433 40,400 885 Climbing New York Center
Fri 08:05:14 AM 32.3367 -66.9011 269° West 376 433 41,300 793 Climbing New York Center
Fri 08:06:14 AM 32.3383 -67.0211 271° West 376 433 42,000 610 Climbing New York Center
Fri 08:07:12 AM 32.3353 -67.1269 268° West 370 426 42,500 508 Climbing New York Center
Fri 08:08:12 AM 32.3392 -67.2567 272° West 365 420 43,000 248 Climbing New York Center
Fri 08:09:13 AM 32.3467 -67.3669 275° West 365 420 43,000  Level New York Center
Fri 08:10:14 AM 32.3483 -67.5042 271° West 375 432 43,000  Level New York Center
Fri 08:11:12 AM 32.3456 -67.6294 269° West 382 440 43,000  Level New York Center
Fri 08:12:12 AM 32.3483 -67.7472 272° West 394 453 43,000  Level New York Center
Fri 08:13:12 AM 32.3497 -67.8872 271° West 394 453 43,000  Level New York Center
Fri 08:14:13 AM 32.3508 -68.0147 271° West 394 453 43,000  Level New York Center
Fri 08:15:14 AM 32.3489 -68.1253 269° West 388 447 43,000  Level New York Center
Fri 08:16:12 AM 32.3417 -68.2628 266° West 383 441 43,000  Level New York Center
Fri 08:17:08 AM 32.3500 -68.2333 245° Southwest 391 450 43,000  Level New York Oceanic (ODAPS)
Fri 08:24:00 AM 31.9373 -69.2805 245° Southwest 391 450 43,000  Level FlightAware Transoceanic
Fri 08:25:00 AM 31.8909 -69.3963 245° Southwest 391 450 43,000  Level FlightAware Transoceanic
Fri 08:26:00 AM 31.8444 -69.5119 245° Southwest 391 450 43,000  Level FlightAware Transoceanic
Fri 08:27:00 AM 31.7978 -69.6274 245° Southwest 391 450 43,000  Level FlightAware Transoceanic
Fri 08:28:00 AM 31.7511 -69.7429 245° Southwest 391 450 43,000  Level FlightAware Transoceanic
Fri 08:29:00 AM 31.7043 -69.8582 244° Southwest 391 450 43,000  Level FlightAware Transoceanic
Fri 08:30:00 AM 31.6574 -69.9733 244° Southwest 391 450 43,000  Level FlightAware Transoceanic
Fri 08:31:00 AM 31.6103 -70.0884 244° Southwest 391 450 43,000  Level FlightAware Transoceanic
Fri 08:32:00 AM 31.5632 -70.2034 244° Southwest 391 450 43,000  Level FlightAware Transoceanic
Fri 08:33:00 AM 31.5160 -70.3182 244° Southwest 391 450 43,000  Level FlightAware Transoceanic
Fri 08:34:00 AM 31.4687 -70.4329 244° Southwest 391 450 43,000  Level FlightAware Transoceanic
Fri 08:35:00 AM 31.4213 -70.5475 244° Southwest 391 450 43,000  Level FlightAware Transoceanic
Fri 08:36:00 AM 31.3737 -70.6620 244° Southwest 391 450 43,000  Level FlightAware Transoceanic
Fri 08:37:00 AM 31.3261 -70.7764 244° Southwest 391 450 43,000  Level FlightAware Transoceanic
Fri 08:38:00 AM 31.2784 -70.8906 244° Southwest 391 450 43,000  Level FlightAware Transoceanic
Fri 08:39:00 AM 31.2306 -71.0048 244° Southwest 391 450 43,000  Level FlightAware Transoceanic
Fri 08:40:00 AM 31.1826 -71.1188 244° Southwest 391 450 43,000  Level FlightAware Transoceanic
Fri 08:41:00 AM 31.1346 -71.2327 244° Southwest 391 450 43,000  Level FlightAware Transoceanic
Fri 08:42:00 AM 31.0865 -71.3465 244° Southwest 391 450 43,000  Level FlightAware Transoceanic
Fri 08:43:00 AM 31.0382 -71.4602 244° Southwest 391 450 43,000  Level FlightAware Transoceanic
Fri 08:44:00 AM 30.9899 -71.5737 244° Southwest 391 450 43,000  Level FlightAware Transoceanic
Fri 08:45:00 AM 30.9415 -71.6872 244° Southwest 391 450 43,000  Level FlightAware Transoceanic
Fri 08:46:00 AM 30.8929 -71.8005 243° Southwest 391 450 43,000  Level FlightAware Transoceanic
Fri 08:47:00 AM 30.8443 -71.9137 243° Southwest 391 450 43,000  Level FlightAware Transoceanic
Fri 08:48:00 AM 30.7956 -72.0268 243° Southwest 391 450 43,000  Level FlightAware Transoceanic
Fri 08:49:00 AM 30.7468 -72.1398 243° Southwest 391 450 43,000  Level FlightAware Transoceanic
Fri 08:50:00 AM 30.6978 -72.2527 243° Southwest 391 450 43,000  Level FlightAware Transoceanic
Fri 08:51:00 AM 30.6488 -72.3654 243° Southwest 391 450 43,000  Level FlightAware Transoceanic
Fri 08:52:00 AM 30.5997 -72.4781 243° Southwest 391 450 43,000  Level FlightAware Transoceanic
Fri 08:53:00 AM 30.5505 -72.5906 243° Southwest 391 450 43,000  Level FlightAware Transoceanic
Fri 08:54:00 AM 30.5012 -72.7030 243° Southwest 391 450 43,000  Level FlightAware Transoceanic
Fri 08:55:00 AM 30.4518 -72.8153 243° Southwest 391 450 43,000  Level FlightAware Transoceanic
Fri 08:56:00 AM 30.4023 -72.9275 243° Southwest 391 450 43,000  Level FlightAware Transoceanic
Fri 08:57:00 AM 30.3527 -73.0396 243° Southwest 391 450 43,000  Level FlightAware Transoceanic
Fri 08:58:00 AM 30.3030 -73.1516 243° Southwest 391 450 43,000  Level FlightAware Transoceanic
Fri 08:59:00 AM 30.2532 -73.2634 243° Southwest 391 450 43,000  Level FlightAware Transoceanic
Fri 09:00:00 AM 30.2033 -73.3751 243° Southwest 391 450 43,000  Level FlightAware Transoceanic
Fri 09:01:00 AM 30.1533 -73.4867 243° Southwest 391 450 43,000  Level FlightAware Transoceanic
Fri 09:02:00 AM 30.1033 -73.5983 243° Southwest 391 450 43,000  Level FlightAware Transoceanic
Fri 09:03:00 AM 30.0531 -73.7096 242° Southwest 391 450 43,000  Level FlightAware Transoceanic
Fri 09:04:00 AM 30.0028 -73.8209 242° Southwest 391 450 43,000  Level FlightAware Transoceanic
Fri 09:05:00 AM 29.9525 -73.9321 242° Southwest 391 450 43,000  Level FlightAware Transoceanic
Fri 09:06:00 AM 29.9020 -74.0432 242° Southwest 391 450 43,000  Level FlightAware Transoceanic
Fri 09:07:00 AM 29.8515 -74.1541 242° Southwest 391 450 43,000  Level FlightAware Transoceanic
Fri 09:08:00 AM 29.8009 -74.2649 242° Southwest 391 450 43,000  Level FlightAware Transoceanic
Fri 09:09:00 AM 29.7501 -74.3756 242° Southwest 391 450 43,000  Level FlightAware Transoceanic
Fri 09:10:00 AM 29.6993 -74.4863 242° Southwest 391 450 43,000  Level FlightAware Transoceanic
Fri 09:11:00 AM 29.6484 -74.5967 242° Southwest 391 450 43,000  Level FlightAware Transoceanic
Fri 09:12:00 AM 29.5974 -74.7071 242° Southwest 391 450 43,000  Level FlightAware Transoceanic
Fri 09:13:00 AM 29.5463 -74.8174 242° Southwest 391 450 43,000  Level FlightAware Transoceanic
Fri 09:14:00 AM 29.4951 -74.9276 242° Southwest 391 450 43,000  Level FlightAware Transoceanic
Fri 09:15:00 AM 29.4439 -75.0376 242° Southwest 391 450 43,000  Level FlightAware Transoceanic
Fri 09:16:00 AM 29.3925 -75.1475 242° Southwest 391 450 43,000  Level FlightAware Transoceanic
Fri 09:17:00 AM 29.3410 -75.2574 242° Southwest 391 450 43,000  Level FlightAware Transoceanic
Fri 09:18:00 AM 29.2895 -75.3671 242° Southwest 391 450 43,000  Level FlightAware Transoceanic
Fri 09:19:00 AM 29.2379 -75.4767 242° Southwest 391 450 43,000  Level FlightAware Transoceanic
Fri 09:20:00 AM 29.1861 -75.5862 242° Southwest 391 450 43,000  Level FlightAware Transoceanic
Fri 09:21:00 AM 29.1343 -75.6956 241° Southwest 391 450 43,000  Level FlightAware Transoceanic
Fri 09:22:00 AM 29.0824 -75.8048 241° Southwest 391 450 43,000  Level FlightAware Transoceanic
Fri 09:23:00 AM 29.0304 -75.9140 241° Southwest 391 450 43,000  Level FlightAware Transoceanic
Fri 09:29:28 AM 28.7717 -76.4392 241° Southwest 441 507 43,000  Level Miami Center
Fri 09:30:28 AM 28.7219 -76.5508 243° Southwest 423 487 43,000  Level Miami Center
Fri 09:31:28 AM 28.6656 -76.6669 241° Southwest 417 480 43,000  Level Miami Center
Fri 09:32:28 AM 28.6242 -76.7806 247° West 407 468 43,000  Level Miami Center
Fri 09:33:28 AM 28.5719 -76.8964 243° Southwest 401 461 43,000  Level Miami Center
Fri 09:34:28 AM 28.5281 -77.0144 247° West 401 461 43,000  Level Miami Center
Fri 09:35:28 AM 28.4797 -77.1278 244° Southwest 406 467 43,000  Level Miami Center
Fri 09:36:28 AM 28.4189 -77.2433 239° Southwest 407 468 43,000  Level Miami Center
Fri 09:37:28 AM 28.3769 -77.3589 248° West 407 468 43,000  Level Miami Center
Fri 09:38:28 AM 28.3325 -77.4742 246° West 402 463 43,000  Level Miami Center
Fri 09:39:28 AM 28.2736 -77.5894 240° Southwest 407 468 43,000  Level Miami Center
Fri 09:40:28 AM 28.2333 -77.7047 248° West 407 468 43,000  Level Miami Center
Fri 09:41:28 AM 28.1806 -77.8197 243° Southwest 407 468 43,000  Level Miami Center
Fri 09:42:28 AM 28.1317 -77.9372 245° Southwest 407 468 43,000  Level Miami Center
Fri 09:43:28 AM 28.0783 -78.0567 243° Southwest 412 474 43,000 -800 Level Miami Center
Fri 09:44:28 AM 28.0294 -78.1761 245° Southwest 418 481 41,400 -1,850 Descending Miami Center
Fri 09:45:28 AM 27.9783 -78.2908 243° Southwest 418 481 39,300 -2,100 Descending Miami Center
Fri 09:46:28 AM 27.9311 -78.4053 245° Southwest 418 481 37,200 -2,100 Descending Miami Center
Fri 09:47:28 AM 27.8839 -78.5197 245° Southwest 412 474 35,100 -1,100 Descending Miami Center
Fri 09:48:28 AM 27.8261 -78.6389 241° Southwest 412 474 35,000 -50 Descending Miami Center
Fri 09:49:28 AM 27.7350 -78.7358 223° Southwest 412 474 35,000 -850 Level Miami Center
Fri 09:50:28 AM 27.6097 -78.7361 180° South 402 463 33,300 -1,750 Descending Miami Center
Fri 09:51:28 AM 27.4956 -78.6781 156° South 435 501 31,500 -1,950 Descending Miami Center
Fri 09:52:28 AM 27.3842 -78.7325 203° Southwest 439 505 29,400 -2,150 Descending Miami Center
Fri 09:53:28 AM 27.2950 -78.8481 229° Southwest 438 504 27,200 -2,000 Descending Miami Center
Fri 09:54:28 AM 27.2411 -78.9661 243° Southwest 438 504 25,400 -1,950 Descending Miami Center
Fri 09:55:28 AM 27.2247 -79.0919 262° West 420 483 23,300 -2,250 Descending Miami Center
Fri 09:56:28 AM 27.2103 -79.2039 262° West 465 535 20,900 -2,450 Descending Miami Center
Fri 09:57:28 AM 27.1939 -79.3228 261° West 405 466 18,400 -2,650 Descending Miami Center
Fri 09:58:28 AM 27.1728 -79.4436 259° West 379 436 15,600 -2,300 Descending Miami Center
Fri 09:59:28 AM 27.1689 -79.5486 268° West 359 413 13,800 -1,800 Descending Miami Center
Fri 10:00:28 AM 27.1461 -79.6461 255° West 338 389 12,000 -1,950 Descending Miami Center
Fri 10:01:28 AM 27.0908 -79.7031 223° Southwest 302 348 9,900 -2,000 Descending Miami Center
Fri 10:02:28 AM 27.0250 -79.7597 217° Southwest 289 333 8,000 -1,750 Descending Miami Center
Fri 10:03:28 AM 26.9550 -79.8069 211° Southwest 282 325 6,400 -1,700 Descending Miami Center
Fri 10:04:28 AM 26.8914 -79.8519 212° Southwest 276 318 4,600 -1,600 Descending Miami Center
Fri 10:05:28 AM 26.8281 -79.8944 211° Southwest 276 318 3,200 -1,350 Descending Miami Center
Fri 10:06:28 AM 26.7706 -79.9372 214° Southwest 276 318 1,900 -800 Descending Miami Center
Fri 10:07:28 AM 26.7069 -79.9797 211° Southwest 261 300 1,600 -200 Descending Miami Center
Fri 10:08:28 AM 26.6772 -80.0117 224° Southwest 199 229 1,500 -100 Descending Miami Center
Fri 10:10:00 AM 26.6832 -80.0956 347° North  Level Estimated
Fri 10:17:00 AM 26.6832 -80.0956 110° East  Level Estimated
Fri 10:18:00 AM 26.6832 -80.0956 110° East  Level Estimated

Login

Don't have an account? Register now (free) for customized features, flight alerts, and more!